BLOG

LUXURY FLIGHT

080-7560-1817

羽田空港本店: 所在地: 東京都大田区羽田空港3-3-2    セントレア店: 所在地: 愛知県常滑市セントレア1-1      HICityファイター店: 所在地: 東京都大田区羽田空港1-1-4
           第1旅客ターミナル5階                  FLIGHT OF DREAMS FLIGHT PARK                 HANEDA INNOVATION CITY ZONE-J 2-5
      営業時間: 10:00~20:00 定休日: 年中無休         営業時間: 10:00~20:00 定休日: 年中無休             営業時間: 10:00~20:00 定休日: 年中無休
      電話番号: 080-7560-1817                  電話番号: 080-4945-5666                     電話番号: 03-5579-7980

lv

BLOG

ph

BLOG

2021年1月14日ココは誰もが子供に還れる場所

羽田空港本店からこんにちはーーー     本日もいい冬晴れです。   羽田のMETARは… RJTT 140200Z 17006KT 140V200 9999 FEW030 11/02 Q1016 NOSIG RMK 1CU0...

2021年1月6日初日の出フライト@中部

中部よりこんにちはーーーーー!! 2021年の三が日、皆様いかがお過ごしになられたでしょうか。   今日の中部は、 RJGG 060130Z 26009KT 9999 FEW020 BKN050 07/M01 Q1016 BECMG 28010KT  ...

2021年1月4日スカイマークにLUXURY FLIGHT JET 🌸

いつも弊社サービスをご利用いただきまして、誠にありがとうございます   本日も羽田空港は良い天気には恵まれておりますが、感染症拡大においては   歯止めがかかる事なく、雲行きが怪しくなって参りました。   仕方がないとはいえ、非常に辛...

2021年1月2日改めましておめでとうございます!!新年はじめは🌸JA73AA🌸

改めまして明けましておめでとうございます   おめでとうとはとは言いましても、暗いニュースが多い新年で   厳しい幕開けとなりました・・・   弊社も本当に厳しい状況ではありますが・・・   やはり新年最初のブロ...

2021年1月1日新年あけましておめでとうございます。

新年、明けましておめでとうございます。   旧年中はひとかたらぬご厚情を賜り、誠にありがとうございました。   2020年はコロナとの戦いとなり、日本の経済におかれましてもとても不安定な年となりましたが、 今年は、コロナの終息を願いつつ、全力で邁進致します。 そこで、例年お正月に開催して...

2020年12月31日2020年!本当にありがとうございました。

ご挨拶   いつも弊社サービスをご利用いただきまして、誠にありがとうございます。 LUXURY FLIGHTの岸田と中澤です。   本年もセントレア店、ファイター店は共に無事、営業終了いたしました。 羽田本店は最後のお客様が22:00までと本当...

2020年12月31日2020年も本当にありがとうございました!!

中部より、こんばんは〜〜〜!!   RJGG 310830Z 28023KT 9999 FEW015 SCT050 05/M01 Q1014 TEMPO 27028G38KT 全国的に冬将軍に見舞われておりますが、皆さまお元気にお過ごしでしょうか   ...

2020年12月29日今日のひとコマ…【羽田空港本店】

  昼下がりの午後の一コマ。     …ん?     なんか見覚えあるこの後ろ姿…     まさか…       ...

2020年12月26日夢と希望と思い出と〜

中部より、少し遅めのメリークリスマス!!   RJGG 260930Z 31016KT 9999 FEW020 BKN060 09/02 Q1022 NOSIG 北風が強めでしたが、比較的過ごしやすいクリスマスでございました。   聖なる日の翌日にご...

2020年12月22日姉妹でLet’s Taxi!!

中部よりこんばんはーーー!!   RJGG 221000Z 28012KT 9999 FEW030 10/M00 Q1022 NOSIG 気温10度とのことですが、風で冷たく感じますね   本日ご紹介させていただくのは、 おひさしぶりにご登場!...

TOP